sensor_id;sensor_type;location;lat;lon;timestamp;P1;durP1;ratioP1;P2;durP2;ratioP2
1591;SDS011;789;51.612;7.510;2023-02-01T00:01:51;24.70;;;14.20;;
1591;SDS011;789;51.612;7.510;2023-02-01T00:04:19;30.13;;;14.20;;
1591;SDS011;789;51.612;7.510;2023-02-01T00:06:49;33.20;;;16.03;;
1591;SDS011;789;51.612;7.510;2023-02-01T00:09:16;30.60;;;13.67;;
1591;SDS011;789;51.612;7.510;2023-02-01T00:11:44;26.77;;;14.27;;
1591;SDS011;789;51.612;7.510;2023-02-01T00:14:11;34.53;;;14.48;;
1591;SDS011;789;51.612;7.510;2023-02-01T00:16:38;25.20;;;13.17;;
1591;SDS011;789;51.612;7.510;2023-02-01T00:19:06;31.87;;;14.20;;
1591;SDS011;789;51.612;7.510;2023-02-01T00:21:34;30.67;;;14.70;;
1591;SDS011;789;51.612;7.510;2023-02-01T00:24:02;29.63;;;14.57;;
1591;SDS011;789;51.612;7.510;2023-02-01T00:26:30;30.23;;;14.17;;
1591;SDS011;789;51.612;7.510;2023-02-01T00:29:01;25.40;;;13.27;;
1591;SDS011;789;51.612;7.510;2023-02-01T00:31:33;26.70;;;13.00;;
1591;SDS011;789;51.612;7.510;2023-02-01T00:33:59;34.77;;;13.83;;
1591;SDS011;789;51.612;7.510;2023-02-01T00:36:28;28.57;;;12.40;;
1591;SDS011;789;51.612;7.510;2023-02-01T00:38:56;26.57;;;13.30;;
1591;SDS011;789;51.612;7.510;2023-02-01T00:41:27;23.10;;;11.70;;
1591;SDS011;789;51.612;7.510;2023-02-01T00:43:53;28.20;;;12.10;;
1591;SDS011;789;51.612;7.510;2023-02-01T00:46:20;25.23;;;11.27;;
1591;SDS011;789;51.612;7.510;2023-02-01T00:48:47;21.10;;;11.27;;
1591;SDS011;789;51.612;7.510;2023-02-01T00:51:19;24.70;;;10.67;;
1591;SDS011;789;51.612;7.510;2023-02-01T00:53:49;28.27;;;14.47;;
1591;SDS011;789;51.612;7.510;2023-02-01T00:56:17;27.07;;;10.73;;
1591;SDS011;789;51.612;7.510;2023-02-01T00:58:56;20.20;;;9.10;;
1591;SDS011;789;51.612;7.510;2023-02-01T01:01:23;24.50;;;8.90;;
1591;SDS011;789;51.612;7.510;2023-02-01T01:03:53;21.80;;;8.17;;
1591;SDS011;789;51.612;7.510;2023-02-01T01:06:22;22.40;;;7.73;;
1591;SDS011;789;51.612;7.510;2023-02-01T01:08:50;17.47;;;7.40;;
1591;SDS011;789;51.612;7.510;2023-02-01T01:11:19;16.93;;;7.60;;
1591;SDS011;789;51.612;7.510;2023-02-01T01:13:49;20.93;;;7.17;;
1591;SDS011;789;51.612;7.510;2023-02-01T01:16:17;20.50;;;7.13;;
1591;SDS011;789;51.612;7.510;2023-02-01T01:18:47;23.27;;;7.37;;
1591;SDS011;789;51.612;7.510;2023-02-01T01:21:14;16.87;;;6.03;;
1591;SDS011;789;51.612;7.510;2023-02-01T01:23:42;15.60;;;6.00;;
1591;SDS011;789;51.612;7.510;2023-02-01T01:26:10;15.53;;;5.70;;
1591;SDS011;789;51.612;7.510;2023-02-01T01:28:40;18.30;;;6.13;;
1591;SDS011;789;51.612;7.510;2023-02-01T01:31:09;13.20;;;6.00;;
1591;SDS011;789;51.612;7.510;2023-02-01T01:33:35;18.97;;;5.70;;
1591;SDS011;789;51.612;7.510;2023-02-01T01:36:04;16.40;;;4.45;;
1591;SDS011;789;51.612;7.510;2023-02-01T01:38:31;13.18;;;4.20;;
1591;SDS011;789;51.612;7.510;2023-02-01T01:40:58;18.38;;;4.93;;
1591;SDS011;789;51.612;7.510;2023-02-01T01:43:44;16.80;;;6.20;;
1591;SDS011;789;51.612;7.510;2023-02-01T01:46:15;9.43;;;4.30;;
1591;SDS011;789;51.612;7.510;2023-02-01T01:48:43;19.30;;;4.27;;
1591;SDS011;789;51.612;7.510;2023-02-01T01:51:10;16.90;;;4.40;;
1591;SDS011;789;51.612;7.510;2023-02-01T01:53:41;17.77;;;4.60;;
1591;SDS011;789;51.612;7.510;2023-02-01T01:56:11;12.52;;;4.28;;
1591;SDS011;789;51.612;7.510;2023-02-01T01:58:38;18.90;;;5.10;;
1591;SDS011;789;51.612;7.510;2023-02-01T02:01:07;18.53;;;5.30;;
1591;SDS011;789;51.612;7.510;2023-02-01T02:03:37;18.37;;;5.33;;
1591;SDS011;789;51.612;7.510;2023-02-01T02:06:12;16.63;;;5.10;;
1591;SDS011;789;51.612;7.510;2023-02-01T02:08:48;14.13;;;4.93;;
1591;SDS011;789;51.612;7.510;2023-02-01T02:11:15;17.73;;;4.90;;
1591;SDS011;789;51.612;7.510;2023-02-01T02:13:44;20.03;;;5.23;;
1591;SDS011;789;51.612;7.510;2023-02-01T02:16:19;20.27;;;5.60;;
1591;SDS011;789;51.612;7.510;2023-02-01T02:18:56;20.70;;;4.47;;
1591;SDS011;789;51.612;7.510;2023-02-01T02:21:42;23.33;;;5.17;;
1591;SDS011;789;51.612;7.510;2023-02-01T02:24:34;18.57;;;5.03;;
1591;SDS011;789;51.612;7.510;2023-02-01T02:27:26;25.33;;;5.53;;
1591;SDS011;789;51.612;7.510;2023-02-01T02:36:34;15.70;;;3.87;;
1591;SDS011;789;51.612;7.510;2023-02-01T02:39:12;17.93;;;5.10;;
1591;SDS011;789;51.612;7.510;2023-02-01T02:41:47;13.77;;;5.33;;
1591;SDS011;789;51.612;7.510;2023-02-01T02:44:40;20.30;;;5.30;;
1591;SDS011;789;51.612;7.510;2023-02-01T02:47:32;31.00;;;12.40;;
1591;SDS011;789;51.612;7.510;2023-02-01T02:50:05;18.67;;;5.50;;
1591;SDS011;789;51.612;7.510;2023-02-01T02:53:00;13.80;;;4.93;;
1591;SDS011;789;51.612;7.510;2023-02-01T02:55:47;16.73;;;5.00;;
1591;SDS011;789;51.612;7.510;2023-02-01T02:58:16;11.80;;;5.07;;
1591;SDS011;789;51.612;7.510;2023-02-01T03:01:01;16.23;;;5.53;;
1591;SDS011;789;51.612;7.510;2023-02-01T03:03:48;14.83;;;5.00;;
1591;SDS011;789;51.612;7.510;2023-02-01T03:06:35;22.63;;;5.80;;
1591;SDS011;789;51.612;7.510;2023-02-01T03:09:04;18.70;;;5.20;;
1591;SDS011;789;51.612;7.510;2023-02-01T03:11:36;19.67;;;5.07;;
1591;SDS011;789;51.612;7.510;2023-02-01T03:14:22;14.80;;;5.20;;
1591;SDS011;789;51.612;7.510;2023-02-01T03:16:51;16.23;;;6.13;;
1591;SDS011;789;51.612;7.510;2023-02-01T03:19:25;20.83;;;6.07;;
1591;SDS011;789;51.612;7.510;2023-02-01T03:21:57;12.53;;;4.67;;
1591;SDS011;789;51.612;7.510;2023-02-01T03:24:30;19.70;;;5.10;;
1591;SDS011;789;51.612;7.510;2023-02-01T03:27:02;14.40;;;4.13;;
1591;SDS011;789;51.612;7.510;2023-02-01T03:29:37;20.83;;;4.83;;
1591;SDS011;789;51.612;7.510;2023-02-01T03:32:12;16.93;;;5.20;;
1591;SDS011;789;51.612;7.510;2023-02-01T03:34:38;18.67;;;5.07;;
1591;SDS011;789;51.612;7.510;2023-02-01T03:37:08;18.73;;;5.00;;
1591;SDS011;789;51.612;7.510;2023-02-01T03:39:38;15.97;;;4.70;;
1591;SDS011;789;51.612;7.510;2023-02-01T03:42:12;14.53;;;4.70;;
1591;SDS011;789;51.612;7.510;2023-02-01T03:44:45;17.00;;;5.13;;
1591;SDS011;789;51.612;7.510;2023-02-01T03:47:16;18.23;;;5.30;;
1591;SDS011;789;51.612;7.510;2023-02-01T03:49:49;23.10;;;5.10;;
1591;SDS011;789;51.612;7.510;2023-02-01T03:52:20;18.50;;;4.43;;
1591;SDS011;789;51.612;7.510;2023-02-01T03:54:51;17.17;;;4.77;;
1591;SDS011;789;51.612;7.510;2023-02-01T03:57:20;19.87;;;5.00;;
1591;SDS011;789;51.612;7.510;2023-02-01T03:59:51;14.03;;;4.50;;
1591;SDS011;789;51.612;7.510;2023-02-01T04:02:18;20.50;;;4.87;;
1591;SDS011;789;51.612;7.510;2023-02-01T04:04:44;18.50;;;4.43;;
1591;SDS011;789;51.612;7.510;2023-02-01T04:07:11;16.60;;;4.60;;
1591;SDS011;789;51.612;7.510;2023-02-01T04:09:39;17.83;;;4.97;;
1591;SDS011;789;51.612;7.510;2023-02-01T04:12:06;16.07;;;4.00;;
1591;SDS011;789;51.612;7.510;2023-02-01T04:14:32;16.03;;;4.30;;
1591;SDS011;789;51.612;7.510;2023-02-01T04:16:59;16.10;;;4.30;;
1591;SDS011;789;51.612;7.510;2023-02-01T04:19:26;14.73;;;4.40;;
1591;SDS011;789;51.612;7.510;2023-02-01T04:21:52;19.63;;;4.50;;
1591;SDS011;789;51.612;7.510;2023-02-01T04:24:19;14.80;;;4.50;;
1591;SDS011;789;51.612;7.510;2023-02-01T04:26:47;15.30;;;4.40;;
1591;SDS011;789;51.612;7.510;2023-02-01T04:29:14;18.67;;;4.57;;
1591;SDS011;789;51.612;7.510;2023-02-01T04:31:41;13.83;;;3.90;;
1591;SDS011;789;51.612;7.510;2023-02-01T04:34:07;19.37;;;4.83;;
1591;SDS011;789;51.612;7.510;2023-02-01T04:36:34;17.83;;;5.33;;
1591;SDS011;789;51.612;7.510;2023-02-01T04:39:01;17.47;;;4.50;;
1591;SDS011;789;51.612;7.510;2023-02-01T04:41:27;21.73;;;5.13;;
1591;SDS011;789;51.612;7.510;2023-02-01T04:43:56;20.77;;;5.00;;
1591;SDS011;789;51.612;7.510;2023-02-01T04:46:23;14.33;;;3.90;;
1591;SDS011;789;51.612;7.510;2023-02-01T04:48:49;18.07;;;3.90;;
1591;SDS011;789;51.612;7.510;2023-02-01T04:51:16;16.73;;;4.10;;
1591;SDS011;789;51.612;7.510;2023-02-01T04:53:43;20.20;;;3.63;;
1591;SDS011;789;51.612;7.510;2023-02-01T04:56:09;20.03;;;4.50;;
1591;SDS011;789;51.612;7.510;2023-02-01T04:58:36;29.47;;;5.30;;
1591;SDS011;789;51.612;7.510;2023-02-01T05:01:05;22.07;;;5.40;;
1591;SDS011;789;51.612;7.510;2023-02-01T05:03:33;18.07;;;3.97;;
1591;SDS011;789;51.612;7.510;2023-02-01T05:06:00;11.33;;;4.23;;
1591;SDS011;789;51.612;7.510;2023-02-01T05:08:29;13.40;;;3.93;;
1591;SDS011;789;51.612;7.510;2023-02-01T05:10:55;24.97;;;5.40;;
1591;SDS011;789;51.612;7.510;2023-02-01T05:13:23;21.58;;;4.53;;
1591;SDS011;789;51.612;7.510;2023-02-01T05:16:09;16.00;;;4.50;;
1591;SDS011;789;51.612;7.510;2023-02-01T05:18:36;15.20;;;4.67;;
1591;SDS011;789;51.612;7.510;2023-02-01T05:21:02;26.57;;;5.00;;
1591;SDS011;789;51.612;7.510;2023-02-01T05:23:29;15.23;;;4.97;;
1591;SDS011;789;51.612;7.510;2023-02-01T05:25:58;18.97;;;4.77;;
1591;SDS011;789;51.612;7.510;2023-02-01T05:28:25;25.80;;;5.30;;
1591;SDS011;789;51.612;7.510;2023-02-01T05:30:52;21.07;;;4.33;;
1591;SDS011;789;51.612;7.510;2023-02-01T05:33:20;18.33;;;4.70;;
1591;SDS011;789;51.612;7.510;2023-02-01T05:35:47;15.30;;;4.40;;
1591;SDS011;789;51.612;7.510;2023-02-01T05:38:15;19.60;;;4.60;;
1591;SDS011;789;51.612;7.510;2023-02-01T05:40:42;26.00;;;5.27;;
1591;SDS011;789;51.612;7.510;2023-02-01T05:43:14;10.63;;;4.07;;
1591;SDS011;789;51.612;7.510;2023-02-01T05:45:41;20.23;;;4.30;;
1591;SDS011;789;51.612;7.510;2023-02-01T05:48:07;20.97;;;4.87;;
1591;SDS011;789;51.612;7.510;2023-02-01T05:50:35;21.20;;;4.70;;
1591;SDS011;789;51.612;7.510;2023-02-01T05:53:02;14.23;;;4.63;;
1591;SDS011;789;51.612;7.510;2023-02-01T05:55:29;15.10;;;4.60;;
1591;SDS011;789;51.612;7.510;2023-02-01T05:57:55;19.63;;;5.13;;
1591;SDS011;789;51.612;7.510;2023-02-01T06:00:22;19.87;;;4.63;;
1591;SDS011;789;51.612;7.510;2023-02-01T06:02:49;16.97;;;4.70;;
1591;SDS011;789;51.612;7.510;2023-02-01T06:05:16;18.77;;;4.50;;
1591;SDS011;789;51.612;7.510;2023-02-01T06:07:44;19.00;;;4.73;;
1591;SDS011;789;51.612;7.510;2023-02-01T06:10:11;18.40;;;4.47;;
1591;SDS011;789;51.612;7.510;2023-02-01T06:12:39;19.10;;;4.90;;
1591;SDS011;789;51.612;7.510;2023-02-01T06:15:06;17.00;;;5.00;;
1591;SDS011;789;51.612;7.510;2023-02-01T06:17:33;18.47;;;4.87;;
1591;SDS011;789;51.612;7.510;2023-02-01T06:20:00;16.50;;;4.67;;
1591;SDS011;789;51.612;7.510;2023-02-01T06:22:27;14.53;;;4.13;;
1591;SDS011;789;51.612;7.510;2023-02-01T06:24:55;20.60;;;4.90;;
1591;SDS011;789;51.612;7.510;2023-02-01T06:27:23;22.10;;;4.87;;
1591;SDS011;789;51.612;7.510;2023-02-01T06:29:49;17.07;;;4.40;;
1591;SDS011;789;51.612;7.510;2023-02-01T06:32:16;21.17;;;5.60;;
1591;SDS011;789;51.612;7.510;2023-02-01T06:34:43;24.47;;;5.60;;
1591;SDS011;789;51.612;7.510;2023-02-01T06:37:09;12.43;;;4.45;;
1591;SDS011;789;51.612;7.510;2023-02-01T06:39:37;19.20;;;5.05;;
1591;SDS011;789;51.612;7.510;2023-02-01T06:42:05;19.77;;;5.33;;
1591;SDS011;789;51.612;7.510;2023-02-01T06:44:31;33.13;;;5.97;;
1591;SDS011;789;51.612;7.510;2023-02-01T06:46:58;14.67;;;5.60;;
1591;SDS011;789;51.612;7.510;2023-02-01T06:49:25;25.57;;;5.43;;
1591;SDS011;789;51.612;7.510;2023-02-01T06:51:51;16.33;;;5.00;;
1591;SDS011;789;51.612;7.510;2023-02-01T06:54:18;17.13;;;5.03;;
1591;SDS011;789;51.612;7.510;2023-02-01T06:56:44;26.73;;;6.43;;
1591;SDS011;789;51.612;7.510;2023-02-01T06:59:12;23.00;;;4.83;;
1591;SDS011;789;51.612;7.510;2023-02-01T07:01:39;20.30;;;5.53;;
1591;SDS011;789;51.612;7.510;2023-02-01T07:04:06;16.67;;;4.47;;
1591;SDS011;789;51.612;7.510;2023-02-01T07:06:35;14.40;;;3.60;;
1591;SDS011;789;51.612;7.510;2023-02-01T07:09:02;23.33;;;5.83;;
1591;SDS011;789;51.612;7.510;2023-02-01T07:11:29;20.13;;;5.70;;
1591;SDS011;789;51.612;7.510;2023-02-01T07:13:55;19.10;;;4.40;;
1591;SDS011;789;51.612;7.510;2023-02-01T07:16:23;16.73;;;4.80;;
1591;SDS011;789;51.612;7.510;2023-02-01T07:18:50;20.47;;;4.37;;
1591;SDS011;789;51.612;7.510;2023-02-01T07:21:18;18.63;;;4.97;;
1591;SDS011;789;51.612;7.510;2023-02-01T07:23:45;20.30;;;4.80;;
1591;SDS011;789;51.612;7.510;2023-02-01T07:26:12;14.13;;;4.40;;
1591;SDS011;789;51.612;7.510;2023-02-01T07:28:41;13.53;;;4.10;;
1591;SDS011;789;51.612;7.510;2023-02-01T07:31:08;19.85;;;4.85;;
1591;SDS011;789;51.612;7.510;2023-02-01T07:33:37;20.53;;;4.67;;
1591;SDS011;789;51.612;7.510;2023-02-01T07:36:05;27.97;;;5.13;;
1591;SDS011;789;51.612;7.510;2023-02-01T07:38:33;22.40;;;5.23;;
1591;SDS011;789;51.612;7.510;2023-02-01T07:41:00;18.97;;;4.60;;
1591;SDS011;789;51.612;7.510;2023-02-01T07:43:28;19.37;;;4.93;;
1591;SDS011;789;51.612;7.510;2023-02-01T07:45:55;16.70;;;5.83;;
1591;SDS011;789;51.612;7.510;2023-02-01T07:48:23;17.90;;;5.10;;
1591;SDS011;789;51.612;7.510;2023-02-01T07:50:57;14.83;;;5.10;;
1591;SDS011;789;51.612;7.510;2023-02-01T07:53:25;17.40;;;5.67;;
1591;SDS011;789;51.612;7.510;2023-02-01T07:55:51;20.10;;;5.00;;
1591;SDS011;789;51.612;7.510;2023-02-01T07:58:18;19.80;;;5.87;;
1591;SDS011;789;51.612;7.510;2023-02-01T08:00:45;16.97;;;4.93;;
1591;SDS011;789;51.612;7.510;2023-02-01T08:03:29;21.30;;;5.40;;
1591;SDS011;789;51.612;7.510;2023-02-01T08:05:55;19.17;;;5.57;;
1591;SDS011;789;51.612;7.510;2023-02-01T08:08:23;19.23;;;5.33;;
1591;SDS011;789;51.612;7.510;2023-02-01T08:10:50;22.53;;;5.33;;
1591;SDS011;789;51.612;7.510;2023-02-01T08:13:19;24.87;;;5.77;;
1591;SDS011;789;51.612;7.510;2023-02-01T08:15:46;21.37;;;5.47;;
1591;SDS011;789;51.612;7.510;2023-02-01T08:18:12;15.80;;;5.33;;
1591;SDS011;789;51.612;7.510;2023-02-01T08:20:41;19.53;;;5.43;;
1591;SDS011;789;51.612;7.510;2023-02-01T08:23:11;24.97;;;5.60;;
1591;SDS011;789;51.612;7.510;2023-02-01T08:25:38;28.93;;;6.57;;
1591;SDS011;789;51.612;7.510;2023-02-01T08:28:05;20.67;;;6.07;;
1591;SDS011;789;51.612;7.510;2023-02-01T08:30:33;22.90;;;5.87;;
1591;SDS011;789;51.612;7.510;2023-02-01T08:32:59;23.47;;;5.67;;
1591;SDS011;789;51.612;7.510;2023-02-01T08:35:26;27.30;;;7.00;;
1591;SDS011;789;51.612;7.510;2023-02-01T08:37:53;22.00;;;5.70;;
1591;SDS011;789;51.612;7.510;2023-02-01T08:40:21;19.57;;;5.70;;
1591;SDS011;789;51.612;7.510;2023-02-01T08:42:47;14.87;;;5.17;;
1591;SDS011;789;51.612;7.510;2023-02-01T08:45:17;21.70;;;5.90;;
1591;SDS011;789;51.612;7.510;2023-02-01T08:47:44;18.33;;;5.67;;
1591;SDS011;789;51.612;7.510;2023-02-01T08:50:11;23.40;;;5.30;;
1591;SDS011;789;51.612;7.510;2023-02-01T08:52:39;21.10;;;5.87;;
1591;SDS011;789;51.612;7.510;2023-02-01T08:55:06;17.90;;;6.03;;
1591;SDS011;789;51.612;7.510;2023-02-01T08:57:35;17.60;;;5.77;;
1591;SDS011;789;51.612;7.510;2023-02-01T09:00:02;35.50;;;6.43;;
1591;SDS011;789;51.612;7.510;2023-02-01T09:02:30;18.13;;;5.80;;
1591;SDS011;789;51.612;7.510;2023-02-01T09:04:57;19.67;;;5.67;;
1591;SDS011;789;51.612;7.510;2023-02-01T09:07:24;19.70;;;6.60;;
1591;SDS011;789;51.612;7.510;2023-02-01T09:09:50;35.47;;;6.70;;
1591;SDS011;789;51.612;7.510;2023-02-01T09:12:19;24.90;;;6.30;;
1591;SDS011;789;51.612;7.510;2023-02-01T09:14:48;23.70;;;6.80;;
1591;SDS011;789;51.612;7.510;2023-02-01T09:17:14;19.70;;;6.23;;
1591;SDS011;789;51.612;7.510;2023-02-01T09:19:41;19.30;;;5.80;;
1591;SDS011;789;51.612;7.510;2023-02-01T09:22:07;17.40;;;6.17;;
1591;SDS011;789;51.612;7.510;2023-02-01T09:24:34;20.50;;;6.37;;
1591;SDS011;789;51.612;7.510;2023-02-01T09:27:01;14.20;;;5.60;;
1591;SDS011;789;51.612;7.510;2023-02-01T09:29:28;18.50;;;6.07;;
1591;SDS011;789;51.612;7.510;2023-02-01T09:31:56;20.93;;;6.10;;
1591;SDS011;789;51.612;7.510;2023-02-01T09:34:22;20.90;;;6.07;;
1591;SDS011;789;51.612;7.510;2023-02-01T09:36:49;27.93;;;6.53;;
1591;SDS011;789;51.612;7.510;2023-02-01T09:39:16;24.57;;;5.93;;
1591;SDS011;789;51.612;7.510;2023-02-01T09:41:46;27.53;;;6.20;;
1591;SDS011;789;51.612;7.510;2023-02-01T09:44:31;20.17;;;6.50;;
1591;SDS011;789;51.612;7.510;2023-02-01T09:47:10;16.67;;;6.00;;
1591;SDS011;789;51.612;7.510;2023-02-01T09:49:39;23.70;;;7.00;;
1591;SDS011;789;51.612;7.510;2023-02-01T09:52:15;18.83;;;6.33;;
1591;SDS011;789;51.612;7.510;2023-02-01T09:54:46;23.83;;;6.17;;
1591;SDS011;789;51.612;7.510;2023-02-01T09:57:19;19.63;;;6.60;;
1591;SDS011;789;51.612;7.510;2023-02-01T09:59:51;19.60;;;6.63;;
1591;SDS011;789;51.612;7.510;2023-02-01T10:02:24;19.23;;;7.17;;
1591;SDS011;789;51.612;7.510;2023-02-01T10:04:53;23.30;;;7.23;;
1591;SDS011;789;51.612;7.510;2023-02-01T10:07:25;28.67;;;7.33;;
1591;SDS011;789;51.612;7.510;2023-02-01T10:09:59;20.03;;;7.00;;
1591;SDS011;789;51.612;7.510;2023-02-01T10:12:43;26.23;;;7.10;;
1591;SDS011;789;51.612;7.510;2023-02-01T10:15:23;20.77;;;6.60;;
1591;SDS011;789;51.612;7.510;2023-02-01T10:18:11;21.63;;;7.20;;
1591;SDS011;789;51.612;7.510;2023-02-01T10:20:52;21.23;;;7.40;;
1591;SDS011;789;51.612;7.510;2023-02-01T10:26:25;20.20;;;8.50;;
1591;SDS011;789;51.612;7.510;2023-02-01T10:28:53;22.23;;;6.70;;
1591;SDS011;789;51.612;7.510;2023-02-01T10:31:24;75.13;;;35.07;;
1591;SDS011;789;51.612;7.510;2023-02-01T10:33:57;27.70;;;9.07;;
1591;SDS011;789;51.612;7.510;2023-02-01T10:36:26;19.80;;;9.20;;
1591;SDS011;789;51.612;7.510;2023-02-01T10:38:55;24.57;;;6.90;;
1591;SDS011;789;51.612;7.510;2023-02-01T10:41:24;24.60;;;7.40;;
1591;SDS011;789;51.612;7.510;2023-02-01T10:43:57;21.63;;;7.87;;
1591;SDS011;789;51.612;7.510;2023-02-01T10:46:26;16.83;;;7.17;;
1591;SDS011;789;51.612;7.510;2023-02-01T10:48:53;18.63;;;7.43;;
1591;SDS011;789;51.612;7.510;2023-02-01T10:51:24;23.70;;;8.43;;
1591;SDS011;789;51.612;7.510;2023-02-01T10:53:55;22.40;;;7.67;;
1591;SDS011;789;51.612;7.510;2023-02-01T10:56:24;21.60;;;6.77;;
1591;SDS011;789;51.612;7.510;2023-02-01T10:58:59;17.40;;;7.47;;
1591;SDS011;789;51.612;7.510;2023-02-01T11:01:28;22.30;;;7.30;;
1591;SDS011;789;51.612;7.510;2023-02-01T11:03:57;25.03;;;7.10;;
1591;SDS011;789;51.612;7.510;2023-02-01T11:06:28;15.57;;;7.27;;
1591;SDS011;789;51.612;7.510;2023-02-01T11:08:57;14.87;;;6.70;;
1591;SDS011;789;51.612;7.510;2023-02-01T11:11:25;22.60;;;7.23;;
1591;SDS011;789;51.612;7.510;2023-02-01T11:13:56;25.77;;;7.47;;
1591;SDS011;789;51.612;7.510;2023-02-01T11:16:32;20.67;;;7.50;;
1591;SDS011;789;51.612;7.510;2023-02-01T11:19:01;19.90;;;9.03;;
1591;SDS011;789;51.612;7.510;2023-02-01T11:21:29;18.00;;;7.30;;
1591;SDS011;789;51.612;7.510;2023-02-01T11:23:57;18.83;;;7.67;;
1591;SDS011;789;51.612;7.510;2023-02-01T11:26:53;22.70;;;8.10;;
1591;SDS011;789;51.612;7.510;2023-02-01T11:29:21;17.37;;;7.57;;
1591;SDS011;789;51.612;7.510;2023-02-01T11:31:54;21.57;;;7.43;;
1591;SDS011;789;51.612;7.510;2023-02-01T11:34:22;32.57;;;8.50;;
1591;SDS011;789;51.612;7.510;2023-02-01T11:36:53;19.30;;;7.17;;
1591;SDS011;789;51.612;7.510;2023-02-01T11:39:25;23.70;;;7.97;;
1591;SDS011;789;51.612;7.510;2023-02-01T11:41:55;17.97;;;7.17;;
1591;SDS011;789;51.612;7.510;2023-02-01T11:44:28;27.90;;;8.27;;
1591;SDS011;789;51.612;7.510;2023-02-01T11:47:19;21.57;;;6.60;;
1591;SDS011;789;51.612;7.510;2023-02-01T11:49:50;21.23;;;7.10;;
1591;SDS011;789;51.612;7.510;2023-02-01T11:52:28;25.27;;;7.17;;
1591;SDS011;789;51.612;7.510;2023-02-01T11:55:15;25.23;;;9.27;;
1591;SDS011;789;51.612;7.510;2023-02-01T11:57:57;22.00;;;11.20;;
1591;SDS011;789;51.612;7.510;2023-02-01T12:00:43;17.57;;;7.67;;
1591;SDS011;789;51.612;7.510;2023-02-01T12:03:38;24.17;;;8.03;;
1591;SDS011;789;51.612;7.510;2023-02-01T12:06:17;23.43;;;7.93;;
1591;SDS011;789;51.612;7.510;2023-02-01T12:09:05;20.33;;;8.00;;
1591;SDS011;789;51.612;7.510;2023-02-01T12:11:46;18.30;;;7.87;;
1591;SDS011;789;51.612;7.510;2023-02-01T12:14:23;22.27;;;7.87;;
1591;SDS011;789;51.612;7.510;2023-02-01T12:17:06;24.47;;;8.70;;
1591;SDS011;789;51.612;7.510;2023-02-01T12:19:50;25.30;;;8.40;;
1591;SDS011;789;51.612;7.510;2023-02-01T12:22:31;17.30;;;8.17;;
1591;SDS011;789;51.612;7.510;2023-02-01T12:28:14;24.13;;;8.20;;
1591;SDS011;789;51.612;7.510;2023-02-01T12:30:58;27.53;;;9.30;;
1591;SDS011;789;51.612;7.510;2023-02-01T12:33:52;16.30;;;7.70;;
1591;SDS011;789;51.612;7.510;2023-02-01T12:36:35;21.80;;;7.50;;
1591;SDS011;789;51.612;7.510;2023-02-01T12:39:09;26.67;;;7.30;;
1591;SDS011;789;51.612;7.510;2023-02-01T12:41:50;24.00;;;8.10;;
1591;SDS011;789;51.612;7.510;2023-02-01T12:44:34;21.37;;;7.83;;
1591;SDS011;789;51.612;7.510;2023-02-01T12:47:07;23.43;;;7.50;;
1591;SDS011;789;51.612;7.510;2023-02-01T12:49:48;18.48;;;8.52;;
1591;SDS011;789;51.612;7.510;2023-02-01T12:52:21;27.73;;;6.00;;
1591;SDS011;789;51.612;7.510;2023-02-01T12:54:55;21.53;;;6.53;;
1591;SDS011;789;51.612;7.510;2023-02-01T12:57:28;17.97;;;6.80;;
1591;SDS011;789;51.612;7.510;2023-02-01T13:00:01;16.13;;;6.10;;
1591;SDS011;789;51.612;7.510;2023-02-01T13:02:39;17.20;;;5.90;;
1591;SDS011;789;51.612;7.510;2023-02-01T13:05:12;22.10;;;6.77;;
1591;SDS011;789;51.612;7.510;2023-02-01T13:07:43;21.30;;;6.50;;
1591;SDS011;789;51.612;7.510;2023-02-01T13:10:15;20.27;;;6.17;;
1591;SDS011;789;51.612;7.510;2023-02-01T13:12:50;21.93;;;6.00;;
1591;SDS011;789;51.612;7.510;2023-02-01T13:15:21;15.43;;;6.07;;
1591;SDS011;789;51.612;7.510;2023-02-01T13:17:54;19.73;;;6.93;;
1591;SDS011;789;51.612;7.510;2023-02-01T13:20:25;23.87;;;5.97;;
1591;SDS011;789;51.612;7.510;2023-02-01T13:22:57;15.30;;;5.27;;
1591;SDS011;789;51.612;7.510;2023-02-01T13:25:29;12.37;;;5.23;;
1591;SDS011;789;51.612;7.510;2023-02-01T13:28:04;19.20;;;5.13;;
1591;SDS011;789;51.612;7.510;2023-02-01T13:30:38;23.60;;;5.27;;
1591;SDS011;789;51.612;7.510;2023-02-01T13:33:21;19.53;;;4.90;;
1591;SDS011;789;51.612;7.510;2023-02-01T13:39:04;16.60;;;4.70;;
1591;SDS011;789;51.612;7.510;2023-02-01T13:41:50;19.93;;;5.30;;
1591;SDS011;789;51.612;7.510;2023-02-01T13:44:24;9.93;;;3.50;;
1591;SDS011;789;51.612;7.510;2023-02-01T13:46:54;19.93;;;4.03;;
1591;SDS011;789;51.612;7.510;2023-02-01T13:49:24;11.93;;;3.63;;
1591;SDS011;789;51.612;7.510;2023-02-01T13:51:54;15.70;;;4.60;;
1591;SDS011;789;51.612;7.510;2023-02-01T13:54:30;17.70;;;4.70;;
1591;SDS011;789;51.612;7.510;2023-02-01T13:56:58;9.07;;;3.77;;
1591;SDS011;789;51.612;7.510;2023-02-01T13:59:44;16.03;;;4.90;;
1591;SDS011;789;51.612;7.510;2023-02-01T14:08:36;16.93;;;4.03;;
1591;SDS011;789;51.612;7.510;2023-02-01T14:11:05;15.53;;;4.20;;
1591;SDS011;789;51.612;7.510;2023-02-01T14:13:32;12.50;;;3.50;;
1591;SDS011;789;51.612;7.510;2023-02-01T14:16:15;17.50;;;3.60;;
1591;SDS011;789;51.612;7.510;2023-02-01T14:18:48;13.73;;;3.70;;
1591;SDS011;789;51.612;7.510;2023-02-01T14:21:25;17.47;;;4.20;;
1591;SDS011;789;51.612;7.510;2023-02-01T14:23:56;13.13;;;4.10;;
1591;SDS011;789;51.612;7.510;2023-02-01T14:26:25;18.10;;;4.80;;
1591;SDS011;789;51.612;7.510;2023-02-01T14:29:12;16.67;;;4.60;;
1591;SDS011;789;51.612;7.510;2023-02-01T14:31:52;17.90;;;5.60;;
1591;SDS011;789;51.612;7.510;2023-02-01T14:34:30;16.33;;;5.30;;
1591;SDS011;789;51.612;7.510;2023-02-01T14:37:03;15.10;;;5.27;;
1591;SDS011;789;51.612;7.510;2023-02-01T14:39:33;19.60;;;5.57;;
1591;SDS011;789;51.612;7.510;2023-02-01T14:42:05;16.67;;;5.03;;
1591;SDS011;789;51.612;7.510;2023-02-01T14:44:46;18.80;;;4.30;;
1591;SDS011;789;51.612;7.510;2023-02-01T14:50:00;10.53;;;5.30;;
1591;SDS011;789;51.612;7.510;2023-02-01T14:52:44;22.40;;;5.17;;
1591;SDS011;789;51.612;7.510;2023-02-01T14:55:13;21.37;;;5.20;;
1591;SDS011;789;51.612;7.510;2023-02-01T14:57:45;11.03;;;4.67;;
1591;SDS011;789;51.612;7.510;2023-02-01T15:00:18;16.17;;;4.47;;
1591;SDS011;789;51.612;7.510;2023-02-01T15:02:49;18.57;;;5.20;;
1591;SDS011;789;51.612;7.510;2023-02-01T15:05:22;17.33;;;4.33;;
1591;SDS011;789;51.612;7.510;2023-02-01T15:07:51;18.60;;;5.13;;
1591;SDS011;789;51.612;7.510;2023-02-01T15:10:19;15.10;;;4.10;;
1591;SDS011;789;51.612;7.510;2023-02-01T15:12:47;17.20;;;4.30;;
1591;SDS011;789;51.612;7.510;2023-02-01T15:15:16;14.63;;;5.03;;
1591;SDS011;789;51.612;7.510;2023-02-01T15:17:50;25.63;;;4.70;;
1591;SDS011;789;51.612;7.510;2023-02-01T15:20:19;18.53;;;4.73;;
1591;SDS011;789;51.612;7.510;2023-02-01T15:22:54;22.67;;;5.13;;
1591;SDS011;789;51.612;7.510;2023-02-01T15:25:23;21.73;;;4.57;;
1591;SDS011;789;51.612;7.510;2023-02-01T15:27:51;18.90;;;5.00;;
1591;SDS011;789;51.612;7.510;2023-02-01T15:30:19;20.33;;;4.90;;
1591;SDS011;789;51.612;7.510;2023-02-01T15:32:48;14.73;;;3.93;;
1591;SDS011;789;51.612;7.510;2023-02-01T15:35:33;14.73;;;4.10;;
1591;SDS011;789;51.612;7.510;2023-02-01T15:41:05;15.97;;;4.87;;
1591;SDS011;789;51.612;7.510;2023-02-01T15:43:36;12.33;;;4.70;;
1591;SDS011;789;51.612;7.510;2023-02-01T15:46:09;16.70;;;4.60;;
1591;SDS011;789;51.612;7.510;2023-02-01T15:48:40;13.73;;;4.73;;
1591;SDS011;789;51.612;7.510;2023-02-01T15:51:15;11.63;;;4.03;;
1591;SDS011;789;51.612;7.510;2023-02-01T15:53:48;15.63;;;4.90;;
1591;SDS011;789;51.612;7.510;2023-02-01T15:56:22;14.87;;;4.70;;
1591;SDS011;789;51.612;7.510;2023-02-01T15:58:52;18.67;;;5.20;;
1591;SDS011;789;51.612;7.510;2023-02-01T16:01:20;16.40;;;4.10;;
1591;SDS011;789;51.612;7.510;2023-02-01T16:03:48;18.73;;;4.63;;
1591;SDS011;789;51.612;7.510;2023-02-01T16:06:28;23.63;;;6.50;;
1591;SDS011;789;51.612;7.510;2023-02-01T16:08:59;14.20;;;4.93;;